Time;durP1;ratioP1;P1;durP2;ratioP2;P2;SDS_P1;SDS_P2;PMS_P1;PMS_P2;Temp;Humidity;BMP_temperature;BMP_pressure;BME280_temperature;BME280_humidity;BME280_pressure;Samples;Min_cycle;Max_cycle;Signal;HPM_P1;HPM_P2
2022/05/21 00:01:06;;;;;;;;;8.00;4.00;;;;;17.45;70.58;101998.34;5041388;28;45627;-66
2022/05/21 00:03:31;;;;;;;;;6.00;5.00;;;;;17.45;70.48;102006.22;5041519;28;45283;-66
2022/05/21 00:05:57;;;;;;;;;3.25;3.00;;;;;17.39;70.95;102001.19;5041207;28;45309;-66
2022/05/21 00:08:22;;;;;;;;;5.75;5.75;;;;;17.36;71.11;102001.28;5041946;28;45305;-66
2022/05/21 00:10:48;;;;;;;;;4.75;4.00;;;;;17.34;70.93;101999.56;5041400;28;45264;-66
2022/05/21 00:13:14;;;;;;;;;7.50;5.00;;;;;17.33;71.41;101997.84;5041141;28;46668;-66
2022/05/21 00:15:40;;;;;;;;;4.00;4.00;;;;;17.33;71.38;102003.13;5041183;28;45355;-66
2022/05/21 00:18:05;;;;;;;;;4.25;4.25;;;;;17.31;71.51;101997.06;5041580;28;45480;-67
2022/05/21 00:20:49;;;;;;;;;4.50;4.50;;;;;17.26;71.43;102004.25;5052338;28;45312;-66
2022/05/21 00:23:19;;;;;;;;;4.75;4.00;;;;;17.25;71.29;102001.69;5043280;28;45434;-66
2022/05/21 00:25:47;;;;;;;;;7.75;4.00;;;;;17.25;71.15;102001.69;5039406;28;45674;-67
2022/05/21 00:28:13;;;;;;;;;6.00;5.00;;;;;17.20;71.10;101999.19;5039966;28;45546;-66
2022/05/21 00:30:38;;;;;;;;;4.00;4.00;;;;;17.21;71.47;102000.06;5041194;28;45422;-66
2022/05/21 00:33:04;;;;;;;;;7.50;7.25;;;;;17.17;71.28;102004.56;5040559;28;45445;-67
2022/05/21 00:35:30;;;;;;;;;6.00;3.50;;;;;17.15;71.40;102006.38;5040464;28;45271;-67
2022/05/21 00:38:12;;;;;;;;;3.25;2.75;;;;;17.13;71.48;102010.84;5040978;28;45745;-68
2022/05/21 00:40:39;;;;;;;;;4.75;4.75;;;;;17.10;71.36;102007.47;5041147;28;45344;-67
2022/05/21 00:43:05;;;;;;;;;3.25;2.25;;;;;17.07;71.31;102008.44;5044413;28;46148;-66
2022/05/21 00:45:30;;;;;;;;;3.50;2.00;;;;;16.97;71.43;102002.63;5041104;28;45441;-68
2022/05/21 00:47:57;;;;;;;;;6.00;3.00;;;;;16.99;71.62;102018.31;5042373;28;45564;-67
2022/05/21 00:50:28;;;;;;;;;2.25;2.25;;;;;16.96;71.65;102018.44;5040600;28;45355;-67
2022/05/21 00:52:54;;;;;;;;;6.00;3.00;;;;;16.95;71.65;102014.09;5040909;28;45437;-67
2022/05/21 00:55:31;;;;;;;;;6.00;4.50;;;;;16.95;71.57;102008.84;5039505;28;45746;-67
2022/05/21 01:00:57;;;;;;;;;6.50;4.00;;;;;16.91;72.08;102012.47;5041850;28;45536;-66
2022/05/21 01:03:24;;;;;;;;;5.75;4.00;;;;;16.90;72.34;102011.63;5036359;28;46746;-66
2022/05/21 01:05:49;;;;;;;;;4.25;4.00;;;;;16.88;72.46;102002.94;5034168;28;45334;-64
2022/05/21 01:08:15;;;;;;;;;6.00;4.00;;;;;16.90;72.49;102001.13;5041259;28;45834;-64
2022/05/21 01:10:47;;;;;;;;;4.25;4.25;;;;;16.91;72.96;101996.72;5049460;28;45322;-65
2022/05/21 01:13:18;;;;;;;;;6.50;3.75;;;;;16.90;72.87;102001.13;5050604;28;45466;-65
2022/05/21 01:15:46;;;;;;;;;4.50;4.00;;;;;16.90;72.83;102000.25;5048591;28;45819;-65
2022/05/21 01:18:12;;;;;;;;;7.25;6.00;;;;;16.89;72.86;102004.66;5049169;28;45297;-64
2022/05/21 01:20:47;;;;;;;;;6.00;4.00;;;;;16.88;72.80;101999.47;5050940;28;45314;-65
2022/05/21 01:23:13;;;;;;;;;7.75;6.50;;;;;16.86;73.24;102003.91;5047395;28;46355;-64
2022/05/21 01:25:39;;;;;;;;;8.50;6.00;;;;;16.83;73.03;102001.38;5049292;28;45847;-64
2022/05/21 01:28:13;;;;;;;;;3.25;3.25;;;;;16.81;73.29;102001.41;5049167;28;45439;-65
2022/05/21 01:30:43;;;;;;;;;7.50;6.00;;;;;16.81;73.33;102001.41;5042768;28;45420;-65
2022/05/21 01:33:12;;;;;;;;;3.75;3.50;;;;;16.78;73.58;102004.13;5040118;28;45438;-64
2022/05/21 01:35:39;;;;;;;;;4.00;4.00;;;;;16.78;73.56;102001.50;5033419;28;45470;-64
2022/05/21 01:38:05;;;;;;;;;6.00;6.00;;;;;16.80;73.64;101996.22;5042410;28;45586;-64
2022/05/21 01:40:31;;;;;;;;;4.25;4.25;;;;;16.83;73.68;102002.25;5040535;28;45451;-63
2022/05/21 01:45:42;;;;;;;;;6.50;3.00;;;;;16.87;73.54;102006.47;5039986;28;45782;-63
2022/05/21 01:48:08;;;;;;;;;5.50;4.00;;;;;16.89;73.12;102001.19;5041405;28;45296;-64
2022/05/21 01:50:34;;;;;;;;;4.00;4.00;;;;;16.91;73.32;102004.59;5039767;28;45490;-64
2022/05/21 01:53:00;;;;;;;;;5.50;3.50;;;;;16.93;73.39;102001.00;5039863;28;45585;-65
2022/05/21 01:55:25;;;;;;;;;5.25;5.25;;;;;16.96;73.17;102003.53;5040111;28;45377;-66
2022/05/21 01:57:51;;;;;;;;;6.00;5.00;;;;;16.94;72.98;101994.84;5039357;28;45582;-65
2022/05/21 02:00:18;;;;;;;;;7.50;5.00;;;;;16.94;72.66;101999.25;5039202;28;45559;-65
2022/05/21 02:02:44;;;;;;;;;6.00;5.00;;;;;16.91;73.28;102002.84;5038505;28;45573;-66
2022/05/21 02:05:10;;;;;;;;;7.00;5.00;;;;;16.92;73.20;102001.06;5038639;28;45385;-65
2022/05/21 02:07:35;;;;;;;;;6.75;4.00;;;;;16.93;73.14;101995.75;5032085;28;45528;-65
2022/05/21 02:10:02;;;;;;;;;5.25;4.75;;;;;16.94;73.07;101991.38;5040604;28;45481;-65
2022/05/21 02:12:27;;;;;;;;;4.00;3.75;;;;;16.93;73.20;101997.53;5038021;28;45580;-65
2022/05/21 02:14:54;;;;;;;;;4.75;4.00;;;;;16.94;73.13;101992.22;5038663;28;45371;-65
2022/05/21 02:17:20;;;;;;;;;7.25;6.25;;;;;16.92;72.75;102001.06;5038151;28;45262;-65
2022/05/21 02:19:46;;;;;;;;;11.50;4.00;;;;;16.88;73.25;101999.47;5039351;28;45236;-66
2022/05/21 02:22:12;;;;;;;;;6.50;5.00;;;;;16.89;73.18;102006.44;5040968;28;46124;-65
2022/05/21 02:24:37;;;;;;;;;5.25;5.00;;;;;16.88;73.00;102004.72;5037151;28;45713;-65
2022/05/21 02:27:03;;;;;;;;;5.75;4.00;;;;;16.91;72.99;102000.22;5035967;28;45429;-64
2022/05/21 02:29:29;;;;;;;;;8.50;5.00;;;;;16.87;72.64;102010.88;5039150;28;45246;-64
2022/05/21 02:31:54;;;;;;;;;7.00;3.50;;;;;16.84;73.35;102003.09;5041101;28;46211;-64
2022/05/21 02:34:20;;;;;;;;;5.50;4.75;;;;;16.83;73.20;101998.75;5037910;28;45514;-64
2022/05/21 02:39:29;;;;;;;;;5.25;4.50;;;;;16.79;72.75;102008.47;5039418;28;45439;-66
2022/05/21 02:41:56;;;;;;;;;6.25;5.25;;;;;16.77;72.92;101996.31;5043206;28;46483;-65
2022/05/21 02:44:22;;;;;;;;;6.75;4.75;;;;;16.75;73.03;102000.75;5036788;28;45777;-66
2022/05/21 02:46:47;;;;;;;;;5.75;4.00;;;;;16.75;73.24;102003.38;5036877;28;45347;-65
2022/05/21 02:49:13;;;;;;;;;5.00;5.00;;;;;16.75;72.70;102008.63;5033813;28;45507;-65
2022/05/21 02:51:38;;;;;;;;;7.25;4.50;;;;;16.71;72.94;102006.13;5036651;28;45446;-65
2022/05/21 02:54:06;;;;;;;;;3.50;3.50;;;;;16.71;72.99;102000.88;5039168;28;45456;-65
2022/05/21 02:56:35;;;;;;;;;5.00;4.00;;;;;16.71;72.97;102000.88;5041518;28;45295;-65
2022/05/21 02:59:00;;;;;;;;;4.75;4.25;;;;;16.69;72.50;101999.22;5040905;28;45607;-64
2022/05/21 03:01:26;;;;;;;;;1.75;1.50;;;;;16.69;73.26;102010.56;5042351;28;45481;-64
2022/05/21 03:03:51;;;;;;;;;6.00;4.00;;;;;16.69;73.11;102007.09;5042549;28;45379;-64
2022/05/21 03:06:16;;;;;;;;;5.00;5.00;;;;;16.72;72.98;102009.59;5042062;28;45502;-65
2022/05/21 03:11:25;;;;;;;;;5.00;4.00;;;;;16.73;72.87;102013.94;5041865;28;45434;-65
2022/05/21 03:13:51;;;;;;;;;4.50;4.00;;;;;16.72;72.81;102005.22;5042181;28;45332;-65
2022/05/21 03:16:16;;;;;;;;;3.00;3.00;;;;;16.69;72.52;102013.19;5042492;28;45260;-65
2022/05/21 03:18:41;;;;;;;;;2.75;2.50;;;;;16.70;72.82;102014.03;5037604;28;45306;-65
2022/05/21 03:21:07;;;;;;;;;3.50;3.50;;;;;16.71;72.90;102010.50;5042024;28;45292;-65
2022/05/21 03:23:32;;;;;;;;;5.50;4.25;;;;;16.69;72.59;101999.22;5042323;28;45357;-65
2022/05/21 03:25:57;;;;;;;;;4.25;2.50;;;;;16.73;72.43;102001.69;5042055;28;45438;-65
2022/05/21 03:28:23;;;;;;;;;4.25;4.00;;;;;16.75;72.20;102009.50;5042180;28;45351;-65
2022/05/21 03:30:50;;;;;;;;;4.50;3.75;;;;;16.79;72.24;102010.25;5042018;28;45543;-65
2022/05/21 03:33:16;;;;;;;;;3.50;3.50;;;;;16.85;72.24;102002.19;5040642;28;45384;-65
2022/05/21 03:35:41;;;;;;;;;5.25;2.50;;;;;16.89;71.94;102014.31;5041886;28;45356;-64
2022/05/21 03:38:07;;;;;;;;;6.50;3.00;;;;;16.92;71.86;102014.19;5044408;28;45272;-65
2022/05/21 03:40:33;;;;;;;;;4.75;3.75;;;;;16.94;71.59;102007.97;5042707;28;46473;-65
2022/05/21 03:42:58;;;;;;;;;4.00;3.50;;;;;16.95;71.76;102003.59;5045637;28;45295;-65
2022/05/21 03:45:25;;;;;;;;;3.00;3.00;;;;;16.99;71.57;102007.81;5041967;28;45579;-65
2022/05/21 03:47:51;;;;;;;;;3.75;3.25;;;;;17.02;71.50;102013.84;5043027;28;45561;-64
2022/05/21 03:50:21;;;;;;;;;4.50;2.00;;;;;17.03;71.09;102001.56;5038871;28;45601;-64
2022/05/21 03:52:47;;;;;;;;;2.75;2.00;;;;;17.03;70.94;102009.44;5041195;28;45750;-64
2022/05/21 03:55:12;;;;;;;;;4.00;3.75;;;;;17.05;70.57;102009.41;5041785;28;45279;-65
2022/05/21 03:57:38;;;;;;;;;4.00;3.50;;;;;16.99;70.44;102002.56;5039669;28;45289;-66
2022/05/21 04:00:08;;;;;;;;;3.50;3.50;;;;;16.99;70.32;102015.69;5041381;28;46590;-66
2022/05/21 04:02:34;;;;;;;;;6.25;2.50;;;;;16.96;70.44;102019.28;5040265;28;45393;-63
2022/05/21 04:05:00;;;;;;;;;5.00;3.00;;;;;16.96;70.55;102021.91;5028957;28;45242;-64
2022/05/21 04:07:25;;;;;;;;;7.75;5.25;;;;;16.97;70.16;102018.38;5041477;28;45288;-65
2022/05/21 04:09:51;;;;;;;;;4.50;3.00;;;;;16.99;70.24;102020.94;5040358;28;45239;-65
2022/05/21 04:12:19;;;;;;;;;3.00;3.00;;;;;16.98;70.08;102020.09;5041124;28;45690;-65
2022/05/21 04:14:44;;;;;;;;;2.50;2.50;;;;;16.97;70.08;102018.38;5039948;28;45609;-65
2022/05/21 04:17:13;;;;;;;;;5.00;2.25;;;;;16.97;70.00;102012.25;5041115;28;45353;-65
2022/05/21 04:19:40;;;;;;;;;5.00;3.50;;;;;16.98;70.22;102019.22;5041115;28;46301;-68
2022/05/21 04:22:07;;;;;;;;;2.25;2.25;;;;;16.98;69.97;102022.72;5041313;28;45284;-66
2022/05/21 04:24:32;;;;;;;;;2.75;2.50;;;;;17.00;69.90;102023.50;5039933;28;45276;-66
2022/05/21 04:26:58;;;;;;;;;5.00;4.00;;;;;17.06;69.97;102019.00;5036243;28;45457;-65
2022/05/21 04:29:24;;;;;;;;;3.00;3.00;;;;;17.10;69.92;102016.19;5041067;28;46370;-64
2022/05/21 04:31:49;;;;;;;;;2.75;2.00;;;;;17.10;69.33;102020.59;5041076;28;45667;-64
2022/05/21 04:34:15;;;;;;;;;3.25;2.00;;;;;17.11;69.60;102024.94;5038939;28;45309;-66
2022/05/21 04:36:41;;;;;;;;;3.75;3.25;;;;;17.13;69.81;102023.13;5036941;28;45490;-65
2022/05/21 04:39:07;;;;;;;;;6.25;4.00;;;;;17.14;69.21;102025.69;5040844;28;45502;-66
2022/05/21 04:41:33;;;;;;;;;2.00;2.00;;;;;17.13;69.41;102025.75;5047221;28;45469;-66
2022/05/21 04:43:59;;;;;;;;;2.00;2.00;;;;;17.16;69.40;102025.63;5040746;28;45448;-65
2022/05/21 04:46:25;;;;;;;;;2.75;1.00;;;;;17.17;69.72;102022.09;5040965;28;45387;-66
2022/05/21 04:48:51;;;;;;;;;3.25;2.75;;;;;17.17;69.22;102020.31;5041082;28;45426;-66
2022/05/21 04:51:17;;;;;;;;;6.00;3.50;;;;;17.17;69.32;102015.06;5040621;28;45821;-65
2022/05/21 04:53:43;;;;;;;;;4.00;3.50;;;;;17.19;69.24;102015.00;5040925;28;45182;-65
2022/05/21 04:56:09;;;;;;;;;4.00;3.00;;;;;17.22;69.66;102015.78;5040543;28;45537;-65
2022/05/21 04:58:35;;;;;;;;;7.00;5.75;;;;;17.22;69.14;102015.78;5038944;28;45232;-66
2022/05/21 05:01:05;;;;;;;;;12.00;11.00;;;;;17.22;69.06;102012.28;5030466;28;45373;-66
2022/05/21 05:03:31;;;;;;;;;9.50;7.00;;;;;17.25;68.90;102005.16;5039315;28;45342;-66
2022/05/21 05:05:57;;;;;;;;;9.75;8.25;;;;;17.27;69.09;102021.72;5040310;28;45343;-66
2022/05/21 05:08:24;;;;;;;;;5.25;5.00;;;;;17.27;68.98;102013.84;5040565;28;45719;-66
2022/05/21 05:10:50;;;;;;;;;10.00;9.00;;;;;17.24;69.07;102005.22;5040244;28;45669;-73
2022/05/21 05:13:16;;;;;;;;;9.25;9.00;;;;;17.29;68.97;102019.06;5040660;28;45273;-64
2022/05/21 05:15:49;;;;;;;;;9.00;6.75;;;;;17.29;69.21;102017.28;5040481;28;45326;-64
2022/05/21 05:18:17;;;;;;;;;10.75;9.50;;;;;17.31;69.08;102023.34;5040345;28;45469;-64
2022/05/21 05:20:43;;;;;;;;;11.50;8.75;;;;;17.32;68.85;102025.06;5039699;28;45580;-65
2022/05/21 05:23:09;;;;;;;;;11.25;8.00;;;;;17.37;68.99;102022.25;5040509;28;45335;-66
2022/05/21 05:25:35;;;;;;;;;9.25;8.50;;;;;17.40;69.37;102019.50;5039987;28;45376;-67
2022/05/21 05:28:01;;;;;;;;;10.00;6.50;;;;;17.45;68.87;102022.84;5040220;28;46188;-66
2022/05/21 05:30:26;;;;;;;;;9.00;7.75;;;;;17.48;68.67;102020.13;5033574;28;45240;-67
2022/05/21 05:32:52;;;;;;;;;8.50;6.00;;;;;17.54;68.55;102013.78;5040296;28;45224;-66
2022/05/21 05:35:18;;;;;;;;;8.25;7.50;;;;;17.59;68.45;102015.31;5038439;28;45669;-67
2022/05/21 05:37:44;;;;;;;;;8.75;8.75;;;;;17.57;67.82;102009.25;5040098;28;45562;-66
2022/05/21 05:40:17;;;;;;;;;9.50;6.25;;;;;17.56;67.99;102006.69;5039853;28;45323;-64
2022/05/21 05:42:43;;;;;;;;;10.00;9.50;;;;;17.57;68.21;102008.41;5046697;28;45466;-64
2022/05/21 05:45:11;;;;;;;;;9.25;8.00;;;;;17.59;68.30;102012.69;5039652;28;45162;-66
2022/05/21 05:47:37;;;;;;;;;12.50;8.75;;;;;17.66;67.81;102009.84;5039707;28;46381;-66
2022/05/21 05:50:03;;;;;;;;;8.50;8.00;;;;;17.64;68.29;101997.63;5039958;28;45419;-66
2022/05/21 05:52:28;;;;;;;;;13.25;8.00;;;;;17.66;68.28;102008.09;5040025;28;45517;-66
2022/05/21 05:54:54;;;;;;;;;9.00;8.00;;;;;17.68;68.03;102008.91;5039805;28;45265;-65
2022/05/21 05:57:20;;;;;;;;;9.75;8.25;;;;;17.72;67.52;102007.88;5039418;28;45746;-65
2022/05/21 05:59:48;;;;;;;;;11.25;7.50;;;;;17.74;67.79;102010.44;5036728;28;45671;-66
2022/05/21 06:05:04;;;;;;;;;9.75;8.00;;;;;17.76;67.45;102020.00;5028814;28;45315;-65
2022/05/21 06:07:30;;;;;;;;;9.25;8.00;;;;;17.84;67.22;102027.63;5037962;28;48290;-66
2022/05/21 06:10:04;;;;;;;;;8.25;8.25;;;;;17.97;67.39;102020.97;5041475;28;45355;-64
2022/05/21 06:12:31;;;;;;;;;6.00;5.00;;;;;18.15;67.51;102017.63;5039243;28;45283;-64
2022/05/21 06:14:57;;;;;;;;;9.50;7.50;;;;;18.28;67.05;102011.91;5041445;28;45256;-64
2022/05/21 06:17:23;;;;;;;;;6.50;5.25;;;;;18.42;66.34;102031.50;5039293;28;45389;-66
2022/05/21 06:19:48;;;;;;;;;5.75;5.75;;;;;18.54;65.19;102023.09;5039284;28;45233;-66
2022/05/21 06:22:13;;;;;;;;;6.75;3.75;;;;;18.64;65.25;102021.00;5039479;28;45259;-65
2022/05/21 06:24:39;;;;;;;;;3.50;3.00;;;;;18.82;64.70;102016.72;5039761;28;45245;-65
2022/05/21 06:27:05;;;;;;;;;3.00;2.00;;;;;18.90;62.69;102022.56;5039219;28;48217;-65
2022/05/21 06:29:31;;;;;;;;;4.50;3.00;;;;;18.94;63.26;102024.13;5039562;28;45538;-66
2022/05/21 06:31:57;;;;;;;;;7.25;5.50;;;;;19.12;63.30;102022.50;5040462;28;45286;-66
2022/05/21 06:34:23;;;;;;;;;6.00;4.50;;;;;19.20;62.65;102014.25;5042558;28;45260;-66
2022/05/21 06:36:48;;;;;;;;;4.00;2.75;;;;;19.21;62.21;102015.97;5042564;28;45368;-65
2022/05/21 06:39:14;;;;;;;;;6.25;4.00;;;;;19.20;62.16;102022.16;5042758;28;45340;-65
2022/05/21 06:41:39;;;;;;;;;3.75;2.75;;;;;19.17;60.27;102015.25;5046698;28;45358;-65
2022/05/21 06:44:04;;;;;;;;;5.25;4.25;;;;;19.09;60.73;102022.63;5042270;28;45430;-65
2022/05/21 06:46:30;;;;;;;;;2.75;2.25;;;;;19.18;61.44;102021.38;5042456;28;45224;-63
2022/05/21 06:48:55;;;;;;;;;4.00;4.00;;;;;19.34;61.78;102019.78;5041613;28;45312;-63
2022/05/21 06:51:20;;;;;;;;;3.50;3.00;;;;;19.55;61.25;102021.50;5040650;28;45462;-64
2022/05/21 06:53:46;;;;;;;;;3.50;3.00;;;;;19.74;60.23;102022.41;5042554;28;45267;-63
2022/05/21 06:56:14;;;;;;;;;8.50;3.50;;;;;19.88;60.24;102028.84;5042134;28;46397;-64
2022/05/21 06:58:40;;;;;;;;;4.00;4.00;;;;;20.01;60.59;102020.25;5042392;28;45725;-63
2022/05/21 07:01:06;;;;;;;;;5.00;2.00;;;;;20.16;60.46;102025.75;5042217;28;45513;-64
2022/05/21 07:03:31;;;;;;;;;3.75;3.50;;;;;20.16;58.66;102023.97;5042677;28;45562;-64
2022/05/21 07:08:41;;;;;;;;;14.00;11.25;;;;;20.02;55.69;102026.41;5042137;28;45706;-65
2022/05/21 07:11:06;;;;;;;;;5.75;5.75;;;;;19.87;58.27;102032.41;5042126;28;45521;-65
2022/05/21 07:13:32;;;;;;;;;9.50;4.00;;;;;19.80;58.63;102020.41;5042222;28;45325;-65
2022/05/21 07:15:58;;;;;;;;;4.00;4.00;;;;;19.78;58.99;102022.25;5043376;28;46325;-63
2022/05/21 07:18:27;;;;;;;;;5.00;5.00;;;;;19.84;59.46;102028.13;5042236;28;45692;-65
2022/05/21 07:20:54;;;;;;;;;7.50;4.00;;;;;20.02;59.62;102026.41;5041453;28;45384;-68
2022/05/21 07:23:21;;;;;;;;;5.00;5.00;;;;;20.16;59.13;102029.25;5039532;28;45498;-65
2022/05/21 07:25:49;;;;;;;;;5.00;5.00;;;;;20.26;58.04;102024.41;5041702;28;45411;-54
2022/05/21 07:28:16;;;;;;;;;5.50;4.75;;;;;20.40;58.85;102029.88;5043953;28;45236;-53
2022/05/21 07:30:42;;;;;;;;;7.50;6.00;;;;;20.41;58.56;102028.97;5040914;28;45406;-55
2022/05/21 07:33:13;;;;;;;;;8.25;5.75;;;;;20.45;58.64;102034.97;5042860;28;46409;-54
2022/05/21 07:35:38;;;;;;;;;6.00;5.50;;;;;20.51;57.84;102032.03;5049933;28;46544;-53
2022/05/21 07:38:07;;;;;;;;;4.25;4.25;;;;;20.52;57.77;102031.97;5049755;28;45297;-55
2022/05/21 07:40:33;;;;;;;;;9.25;5.50;;;;;20.59;58.63;102032.50;5053652;28;45260;-55
2022/05/21 07:42:59;;;;;;;;;3.25;3.25;;;;;20.66;57.81;102031.31;5048777;28;45340;-55
2022/05/21 07:45:24;;;;;;;;;5.00;3.75;;;;;20.69;54.31;102030.28;5050287;28;45423;-55
2022/05/21 07:47:50;;;;;;;;;4.25;4.00;;;;;20.69;53.03;102036.44;5051899;28;45431;-55
2022/05/21 07:50:16;;;;;;;;;6.75;4.50;;;;;20.63;55.41;102021.75;5047377;28;45285;-67
2022/05/21 07:52:43;;;;;;;;;3.75;3.00;;;;;20.66;56.84;102023.38;5044762;28;45529;-66
2022/05/21 07:55:09;;;;;;;;;3.25;3.00;;;;;20.65;56.55;102029.59;5050964;28;48372;-67
2022/05/21 07:57:34;;;;;;;;;3.00;1.50;;;;;20.75;55.33;102029.97;5043068;28;45513;-65
2022/05/21 08:00:00;;;;;;;;;5.00;2.25;;;;;20.76;55.81;102032.53;5038059;28;45217;-66
2022/05/21 08:02:25;;;;;;;;;4.25;3.50;;;;;20.75;54.41;102017.63;5040767;28;45335;-66
2022/05/21 08:04:51;;;;;;;;;3.25;1.75;;;;;20.85;55.23;102023.31;5040547;28;45350;-65
2022/05/21 08:07:16;;;;;;;;;2.75;2.75;;;;;20.99;54.98;102026.09;5051690;28;45275;-65
2022/05/21 08:09:42;;;;;;;;;1.50;1.50;;;;;21.16;54.87;102034.03;5051778;28;45343;-67
2022/05/21 08:12:08;;;;;;;;;3.50;3.00;;;;;21.18;52.77;102029.53;5050703;28;45212;-69
2022/05/21 08:14:36;;;;;;;;;1.50;1.25;;;;;21.06;50.28;102024.03;5048590;28;45295;-68
2022/05/21 08:17:02;;;;;;;;;4.25;3.00;;;;;21.00;51.98;102021.66;5040635;28;45760;-67
2022/05/21 08:19:27;;;;;;;;;4.00;2.00;;;;;20.98;52.09;102012.97;5040138;28;45374;-69
2022/05/21 08:21:53;;;;;;;;;2.50;1.00;;;;;21.08;51.18;102012.44;5040514;28;45435;-68
2022/05/21 08:27:22;;;;;;;;;2.25;2.25;;;;;21.28;52.11;102011.44;5048687;28;45278;-68
2022/05/21 08:29:48;;;;;;;;;3.00;2.00;;;;;21.44;53.13;102011.50;5050552;28;45359;-72
2022/05/21 08:32:13;;;;;;;;;1.00;1.00;;;;;21.70;52.62;102010.94;5042695;28;45390;-70
2022/05/21 08:34:38;;;;;;;;;3.00;2.75;;;;;21.72;51.82;102008.22;5040607;28;45438;-68
2022/05/21 08:37:06;;;;;;;;;2.50;2.50;;;;;21.73;51.32;102009.94;5040664;28;45370;-68
2022/05/21 08:39:32;;;;;;;;;2.00;2.00;;;;;21.78;52.85;102008.75;5050655;28;45300;-69
2022/05/21 08:42:13;;;;;;;;;3.75;2.00;;;;;21.83;51.74;102013.81;5045974;28;45344;-66
2022/05/21 08:44:47;;;;;;;;;2.25;2.00;;;;;21.83;52.11;102004.06;5040657;28;45531;-67
2022/05/21 08:47:36;;;;;;;;;1.75;1.00;;;;;21.80;49.34;102008.66;5040743;28;45532;-66
2022/05/21 08:50:09;;;;;;;;;2.00;2.00;;;;;21.76;51.46;102004.47;5040641;28;45228;-66
2022/05/21 08:53:07;;;;;;;;;2.00;1.75;;;;;21.91;51.61;101994.84;5039979;28;45485;-67
2022/05/21 08:55:39;;;;;;;;;2.75;2.50;;;;;22.06;50.31;102004.63;5031703;28;46426;-64
2022/05/21 08:58:23;;;;;;;;;3.50;3.50;;;;;22.02;50.25;102003.88;5039830;28;45563;-65
2022/05/21 09:00:49;;;;;;;;;1.00;1.00;;;;;22.04;50.12;102009.13;5040424;28;45447;-65
2022/05/21 09:03:18;;;;;;;;;1.00;1.00;;;;;22.08;49.54;102006.25;5040621;28;45352;-66
2022/05/21 09:05:53;;;;;;;;;1.00;1.00;;;;;22.09;49.09;102005.31;5040369;28;46631;-66
2022/05/21 09:08:45;;;;;;;;;1.75;1.75;;;;;22.10;49.59;102000.88;5040457;28;45221;-66
2022/05/21 09:11:20;;;;;;;;;2.00;2.00;;;;;22.05;46.03;102003.78;5023894;28;45509;-67
2022/05/21 09:14:11;;;;;;;;;1.00;1.00;;;;;22.00;48.80;101999.63;5045074;28;45411;-66
2022/05/21 09:16:54;;;;;;;;;6.25;2.00;;;;;22.01;46.17;101988.94;5038382;28;48424;-64
2022/05/21 09:19:25;;;;;;;;;1.50;1.50;;;;;21.99;49.93;101982.88;5042033;28;45426;-67
2022/05/21 09:21:59;;;;;;;;;3.50;1.50;;;;;22.06;49.40;101989.59;5040686;28;45276;-67
2022/05/21 09:24:41;;;;;;;;;1.00;1.00;;;;;22.17;49.70;101981.88;5044730;28;45437;-65
2022/05/21 09:27:24;;;;;;;;;1.00;1.00;;;;;22.32;48.82;101982.81;5037091;28;46532;-66
2022/05/21 09:29:51;;;;;;;;;2.50;2.50;;;;;22.33;47.06;101978.38;5040057;28;45521;-64
2022/05/21 09:32:19;;;;;;;;;3.25;2.00;;;;;22.27;47.86;101973.44;5046947;28;45362;-71
2022/05/21 09:34:57;;;;;;;;;2.50;2.00;;;;;22.16;47.09;101971.38;5046594;28;45384;-68
2022/05/21 09:37:28;;;;;;;;;2.00;2.00;;;;;22.10;46.99;101964.66;5046943;28;45624;-71
2022/05/21 09:39:53;;;;;;;;;5.75;4.75;;;;;22.11;49.15;101966.34;5046836;28;45454;-72
2022/05/21 09:45:22;;;;;;;;;2.00;1.00;;;;;22.45;49.38;101967.09;5039472;28;45737;-68
2022/05/21 09:48:05;;;;;;;;;4.00;3.00;;;;;22.52;47.49;101955.19;5036760;28;46687;-72
2022/05/21 09:50:58;;;;;;;;;2.00;2.00;;;;;22.60;49.85;101960.88;5027815;28;45431;-71
2022/05/21 09:53:36;;;;;;;;;3.50;2.00;;;;;22.68;48.20;101956.00;5037650;28;45378;-70
2022/05/21 09:56:09;;;;;;;;;3.25;3.00;;;;;22.75;49.53;101954.69;5038495;28;45438;-71
2022/05/21 09:58:40;;;;;;;;;4.50;3.50;;;;;22.75;48.61;101954.69;5039432;28;45679;-68
2022/05/21 10:01:08;;;;;;;;;4.75;2.25;;;;;22.84;47.65;101948.03;5036884;28;45749;-69
2022/05/21 10:03:37;;;;;;;;;2.00;0.25;;;;;22.91;48.68;101948.50;5046641;28;45479;-70
2022/05/21 10:06:13;;;;;;;;;5.75;2.50;;;;;23.05;48.79;101948.53;5046661;28;45465;-67
2022/05/21 10:11:38;;;;;;;;;3.00;3.00;;;;;23.02;47.67;101948.69;5048070;28;45487;-68
2022/05/21 10:14:08;;;;;;;;;4.00;2.00;;;;;22.86;46.80;101946.13;5044052;28;45394;-66
2022/05/21 10:16:45;;;;;;;;;1.75;1.00;;;;;22.91;47.14;101944.06;5043677;28;45312;-70
2022/05/21 10:19:37;;;;;;;;;4.75;2.00;;;;;23.03;47.89;101940.69;5039753;28;46132;-65
2022/05/21 10:22:36;;;;;;;;;6.25;3.00;;;;;23.26;48.49;101952.53;5047718;28;45419;-63
2022/05/21 10:25:13;;;;;;;;;3.25;3.00;;;;;23.47;48.62;101944.19;5048277;28;45679;-63
2022/05/21 10:28:03;;;;;;;;;4.00;4.00;;;;;23.60;48.02;101945.13;5042858;28;46291;-64
2022/05/21 10:30:44;;;;;;;;;4.00;3.25;;;;;23.58;47.78;101939.06;5035802;28;45546;-64
2022/05/21 10:33:17;;;;;;;;;2.75;2.75;;;;;23.69;48.03;101941.91;5044281;28;45197;-64
2022/05/21 10:36:03;;;;;;;;;4.00;2.00;;;;;23.87;48.80;101943.41;5036816;28;45505;-64
2022/05/21 10:38:40;;;;;;;;;3.75;3.25;;;;;23.97;45.54;101943.66;5039224;28;45812;-66
2022/05/21 10:41:27;;;;;;;;;3.25;3.25;;;;;23.83;47.59;101941.91;5075795;27;48361;-65
2022/05/21 10:44:11;;;;;;;;;5.75;5.00;;;;;23.82;47.09;101944.63;5046721;28;45407;-65
2022/05/21 10:46:49;;;;;;;;;3.75;3.75;;;;;23.90;46.85;101934.38;5047160;28;45457;-65
2022/05/21 10:49:43;;;;;;;;;6.75;4.25;;;;;23.95;46.18;101933.13;5045275;28;45371;-66
2022/05/21 10:52:25;;;;;;;;;6.00;5.00;;;;;23.89;47.33;101933.53;5018521;28;46335;-65
2022/05/21 10:55:03;;;;;;;;;7.50;7.50;;;;;23.88;46.90;101934.47;5049308;28;45541;-65
2022/05/21 10:57:49;;;;;;;;;10.00;6.25;;;;;23.97;46.15;101933.88;5046395;28;45619;-65
2022/05/21 11:00:31;;;;;;;;;12.00;7.25;;;;;24.20;45.30;101934.16;5045997;28;45836;-64
2022/05/21 11:03:12;;;;;;;;;5.00;5.00;;;;;24.23;47.17;101921.56;5044582;28;46335;-64
2022/05/21 11:06:05;;;;;;;;;6.50;4.00;;;;;24.23;46.18;101915.41;5043020;28;45246;-65
2022/05/21 11:09:01;;;;;;;;;6.75;3.25;;;;;24.37;47.39;101902.06;5044249;28;45765;-65
2022/05/21 11:11:42;;;;;;;;;8.75;7.50;;;;;24.57;46.25;101901.56;5047039;28;45331;-65
2022/05/21 11:14:15;;;;;;;;;3.75;2.25;;;;;24.67;46.63;101900.97;5045411;28;46149;-65
2022/05/21 11:16:50;;;;;;;;;6.00;4.00;;;;;24.67;46.42;101904.47;5047319;28;45681;-65
2022/05/21 11:19:43;;;;;;;;;5.50;3.00;;;;;24.57;45.27;101898.06;5048439;28;45855;-65
2022/05/21 11:22:16;;;;;;;;;4.00;4.00;;;;;24.60;43.19;101900.50;5049227;28;45389;-67
2022/05/21 11:25:04;;;;;;;;;3.25;3.00;;;;;24.59;44.88;101893.47;5048932;28;47255;-67
2022/05/21 11:27:37;;;;;;;;;3.50;3.50;;;;;24.69;43.77;101896.38;5048221;28;45525;-65
2022/05/21 11:30:17;;;;;;;;;5.25;4.00;;;;;24.82;45.85;101887.44;5052024;28;45444;-65
2022/05/21 11:38:33;;;;;;;;;3.00;3.00;;;;;25.24;44.55;101888.09;5043883;28;45586;-67
2022/05/21 11:43:58;;;;;;;;;3.00;3.00;;;;;25.63;43.27;101880.84;5041316;28;45281;-67
2022/05/21 11:46:38;;;;;;;;;4.00;4.00;;;;;25.59;40.72;101874.91;5041590;28;45661;-70
2022/05/21 11:49:31;;;;;;;;;4.75;3.00;;;;;25.51;42.82;101874.63;5042443;28;45546;-68
2022/05/21 11:51:58;;;;;;;;;5.75;4.50;;;;;25.55;43.80;101868.09;5040467;28;45379;-67
2022/05/21 11:54:45;;;;;;;;;3.00;3.00;;;;;25.72;41.88;101872.25;5041732;28;45416;-65
2022/05/21 11:57:11;;;;;;;;;4.00;4.00;;;;;25.73;40.49;101869.47;5043401;28;45361;-63
2022/05/21 11:59:50;;;;;;;;;3.75;3.50;;;;;25.74;41.66;101860.50;5040640;28;45682;-63
2022/05/21 12:02:23;;;;;;;;;4.75;4.75;;;;;25.80;42.16;101864.53;5039558;28;45324;-65
2022/05/21 12:04:52;;;;;;;;;4.00;4.00;;;;;25.93;42.99;101856.50;5047724;28;45243;-63
2022/05/21 12:07:43;;;;;;;;;5.25;5.00;;;;;26.06;43.53;101851.94;5050432;28;46543;-64
2022/05/21 12:10:12;;;;;;;;;4.00;4.00;;;;;25.97;41.50;101847.28;5038153;28;45399;-64